sensor_id;sensor_type;location;lat;lon;timestamp;P1;durP1;ratioP1;P2;durP2;ratioP2
53299;SDS011;39187;48.476;8.310;2023-02-07T00:00:42;10.37;;;9.40;;
53299;SDS011;39187;48.476;8.310;2023-02-07T00:03:08;8.60;;;7.70;;
53299;SDS011;39187;48.476;8.310;2023-02-07T00:05:34;9.10;;;7.80;;
53299;SDS011;39187;48.476;8.310;2023-02-07T00:08:01;9.23;;;8.33;;
53299;SDS011;39187;48.476;8.310;2023-02-07T00:10:30;9.17;;;8.23;;
53299;SDS011;39187;48.476;8.310;2023-02-07T00:12:56;8.63;;;8.03;;
53299;SDS011;39187;48.476;8.310;2023-02-07T00:15:22;8.03;;;7.43;;
53299;SDS011;39187;48.476;8.310;2023-02-07T00:17:47;8.80;;;8.00;;
53299;SDS011;39187;48.476;8.310;2023-02-07T00:20:13;13.03;;;9.10;;
53299;SDS011;39187;48.476;8.310;2023-02-07T00:22:38;7.03;;;6.47;;
53299;SDS011;39187;48.476;8.310;2023-02-07T00:25:04;9.60;;;7.50;;
53299;SDS011;39187;48.476;8.310;2023-02-07T00:27:29;9.10;;;8.37;;
53299;SDS011;39187;48.476;8.310;2023-02-07T00:29:55;9.33;;;8.37;;
53299;SDS011;39187;48.476;8.310;2023-02-07T00:32:20;8.90;;;8.07;;
53299;SDS011;39187;48.476;8.310;2023-02-07T00:34:46;9.37;;;8.57;;
53299;SDS011;39187;48.476;8.310;2023-02-07T00:37:12;9.77;;;8.77;;
53299;SDS011;39187;48.476;8.310;2023-02-07T00:39:38;9.80;;;8.80;;
53299;SDS011;39187;48.476;8.310;2023-02-07T00:42:04;8.73;;;7.93;;
53299;SDS011;39187;48.476;8.310;2023-02-07T00:44:30;8.40;;;7.43;;
53299;SDS011;39187;48.476;8.310;2023-02-07T00:46:56;7.27;;;6.57;;
53299;SDS011;39187;48.476;8.310;2023-02-07T00:49:22;7.97;;;7.27;;
53299;SDS011;39187;48.476;8.310;2023-02-07T00:51:48;7.97;;;7.10;;
53299;SDS011;39187;48.476;8.310;2023-02-07T00:54:14;8.00;;;7.17;;
53299;SDS011;39187;48.476;8.310;2023-02-07T00:56:39;9.83;;;8.87;;
53299;SDS011;39187;48.476;8.310;2023-02-07T00:59:05;7.33;;;6.73;;
53299;SDS011;39187;48.476;8.310;2023-02-07T01:01:31;8.07;;;7.27;;
53299;SDS011;39187;48.476;8.310;2023-02-07T01:03:56;9.60;;;7.93;;
53299;SDS011;39187;48.476;8.310;2023-02-07T01:06:22;8.53;;;7.10;;
53299;SDS011;39187;48.476;8.310;2023-02-07T01:08:48;9.83;;;8.43;;
53299;SDS011;39187;48.476;8.310;2023-02-07T01:11:14;11.00;;;8.07;;
53299;SDS011;39187;48.476;8.310;2023-02-07T01:13:41;7.67;;;6.97;;
53299;SDS011;39187;48.476;8.310;2023-02-07T01:19:09;10.73;;;8.33;;
53299;SDS011;39187;48.476;8.310;2023-02-07T01:21:35;8.13;;;7.33;;
53299;SDS011;39187;48.476;8.310;2023-02-07T01:24:01;11.10;;;8.40;;
53299;SDS011;39187;48.476;8.310;2023-02-07T01:26:27;9.93;;;7.00;;
53299;SDS011;39187;48.476;8.310;2023-02-07T01:28:53;6.27;;;5.77;;
53299;SDS011;39187;48.476;8.310;2023-02-07T01:31:19;7.67;;;6.50;;
53299;SDS011;39187;48.476;8.310;2023-02-07T01:33:46;6.50;;;5.97;;
53299;SDS011;39187;48.476;8.310;2023-02-07T01:36:13;8.97;;;6.27;;
53299;SDS011;39187;48.476;8.310;2023-02-07T01:38:40;8.27;;;7.47;;
53299;SDS011;39187;48.476;8.310;2023-02-07T01:41:06;11.30;;;8.00;;
53299;SDS011;39187;48.476;8.310;2023-02-07T01:43:31;15.40;;;8.27;;
53299;SDS011;39187;48.476;8.310;2023-02-07T01:45:57;10.13;;;7.63;;
53299;SDS011;39187;48.476;8.310;2023-02-07T01:48:27;8.03;;;7.33;;
53299;SDS011;39187;48.476;8.310;2023-02-07T01:50:56;7.50;;;6.80;;
53299;SDS011;39187;48.476;8.310;2023-02-07T01:53:25;4.77;;;4.30;;
53299;SDS011;39187;48.476;8.310;2023-02-07T01:55:58;9.90;;;8.90;;
53299;SDS011;39187;48.476;8.310;2023-02-07T01:58:27;11.47;;;8.20;;
53299;SDS011;39187;48.476;8.310;2023-02-07T02:00:54;8.77;;;8.07;;
53299;SDS011;39187;48.476;8.310;2023-02-07T02:03:21;8.60;;;7.30;;
53299;SDS011;39187;48.476;8.310;2023-02-07T02:05:47;12.57;;;7.37;;
53299;SDS011;39187;48.476;8.310;2023-02-07T02:08:18;8.60;;;7.93;;
53299;SDS011;39187;48.476;8.310;2023-02-07T02:16:18;9.33;;;6.40;;
53299;SDS011;39187;48.476;8.310;2023-02-07T02:33:10;10.60;;;7.33;;
53299;SDS011;39187;48.476;8.310;2023-02-07T02:39:00;11.73;;;9.50;;
53299;SDS011;39187;48.476;8.310;2023-02-07T02:41:38;8.77;;;6.30;;
53299;SDS011;39187;48.476;8.310;2023-02-07T02:44:19;13.53;;;9.47;;
53299;SDS011;39187;48.476;8.310;2023-02-07T02:46:53;15.60;;;8.77;;
53299;SDS011;39187;48.476;8.310;2023-02-07T02:49:21;13.03;;;9.80;;
53299;SDS011;39187;48.476;8.310;2023-02-07T02:51:50;12.30;;;10.77;;
53299;SDS011;39187;48.476;8.310;2023-02-07T02:54:32;15.33;;;10.10;;
53299;SDS011;39187;48.476;8.310;2023-02-07T02:57:20;17.57;;;10.70;;
53299;SDS011;39187;48.476;8.310;2023-02-07T03:22:22;15.00;;;9.90;;
53299;SDS011;39187;48.476;8.310;2023-02-07T03:24:51;13.80;;;8.53;;
53299;SDS011;39187;48.476;8.310;2023-02-07T03:27:21;15.33;;;11.07;;
53299;SDS011;39187;48.476;8.310;2023-02-07T03:29:49;12.10;;;9.60;;
53299;SDS011;39187;48.476;8.310;2023-02-07T03:32:27;15.63;;;12.20;;
53299;SDS011;39187;48.476;8.310;2023-02-07T03:37:42;22.53;;;12.43;;
53299;SDS011;39187;48.476;8.310;2023-02-07T03:40:12;17.70;;;9.83;;
53299;SDS011;39187;48.476;8.310;2023-02-07T03:42:44;19.67;;;11.70;;
53299;SDS011;39187;48.476;8.310;2023-02-07T03:45:15;17.77;;;10.33;;
53299;SDS011;39187;48.476;8.310;2023-02-07T03:47:43;17.20;;;12.00;;
53299;SDS011;39187;48.476;8.310;2023-02-07T03:50:09;14.47;;;10.80;;
53299;SDS011;39187;48.476;8.310;2023-02-07T03:52:35;13.53;;;9.53;;
53299;SDS011;39187;48.476;8.310;2023-02-07T03:55:01;17.90;;;12.17;;
53299;SDS011;39187;48.476;8.310;2023-02-07T03:57:27;19.97;;;12.87;;
53299;SDS011;39187;48.476;8.310;2023-02-07T03:59:53;13.97;;;10.03;;
53299;SDS011;39187;48.476;8.310;2023-02-07T04:02:19;19.07;;;12.17;;
53299;SDS011;39187;48.476;8.310;2023-02-07T04:04:44;16.17;;;11.50;;
53299;SDS011;39187;48.476;8.310;2023-02-07T04:07:10;28.13;;;13.67;;
53299;SDS011;39187;48.476;8.310;2023-02-07T04:09:36;11.63;;;9.00;;
53299;SDS011;39187;48.476;8.310;2023-02-07T04:12:02;23.07;;;12.53;;
53299;SDS011;39187;48.476;8.310;2023-02-07T04:14:28;23.13;;;11.70;;
53299;SDS011;39187;48.476;8.310;2023-02-07T04:16:54;20.07;;;12.90;;
53299;SDS011;39187;48.476;8.310;2023-02-07T04:19:19;18.13;;;11.93;;
53299;SDS011;39187;48.476;8.310;2023-02-07T04:21:45;22.97;;;13.20;;
53299;SDS011;39187;48.476;8.310;2023-02-07T04:24:11;22.50;;;13.70;;
53299;SDS011;39187;48.476;8.310;2023-02-07T04:26:36;22.03;;;13.93;;
53299;SDS011;39187;48.476;8.310;2023-02-07T04:29:02;19.20;;;12.00;;
53299;SDS011;39187;48.476;8.310;2023-02-07T04:31:28;16.73;;;13.20;;
53299;SDS011;39187;48.476;8.310;2023-02-07T04:33:54;21.50;;;13.23;;
53299;SDS011;39187;48.476;8.310;2023-02-07T04:36:19;23.00;;;13.03;;
53299;SDS011;39187;48.476;8.310;2023-02-07T04:38:44;23.20;;;14.77;;
53299;SDS011;39187;48.476;8.310;2023-02-07T04:41:10;21.13;;;13.47;;
53299;SDS011;39187;48.476;8.310;2023-02-07T04:43:36;36.43;;;14.27;;
53299;SDS011;39187;48.476;8.310;2023-02-07T04:46:02;17.40;;;12.90;;
53299;SDS011;39187;48.476;8.310;2023-02-07T04:48:29;20.30;;;14.73;;
53299;SDS011;39187;48.476;8.310;2023-02-07T04:50:55;22.13;;;14.07;;
53299;SDS011;39187;48.476;8.310;2023-02-07T04:53:20;28.40;;;14.50;;
53299;SDS011;39187;48.476;8.310;2023-02-07T04:55:50;20.43;;;14.37;;
53299;SDS011;39187;48.476;8.310;2023-02-07T04:58:16;28.93;;;15.80;;
53299;SDS011;39187;48.476;8.310;2023-02-07T05:00:43;21.80;;;13.77;;
53299;SDS011;39187;48.476;8.310;2023-02-07T05:03:09;19.73;;;13.87;;
53299;SDS011;39187;48.476;8.310;2023-02-07T05:05:37;21.20;;;13.87;;
53299;SDS011;39187;48.476;8.310;2023-02-07T05:08:03;30.57;;;14.47;;
53299;SDS011;39187;48.476;8.310;2023-02-07T05:10:29;21.50;;;13.93;;
53299;SDS011;39187;48.476;8.310;2023-02-07T05:12:54;20.90;;;14.30;;
53299;SDS011;39187;48.476;8.310;2023-02-07T05:15:20;24.77;;;15.60;;
53299;SDS011;39187;48.476;8.310;2023-02-07T05:17:45;22.60;;;14.47;;
53299;SDS011;39187;48.476;8.310;2023-02-07T05:20:11;20.17;;;13.97;;
53299;SDS011;39187;48.476;8.310;2023-02-07T05:22:37;23.87;;;15.10;;
53299;SDS011;39187;48.476;8.310;2023-02-07T05:25:02;25.33;;;13.80;;
53299;SDS011;39187;48.476;8.310;2023-02-07T05:27:28;23.63;;;14.63;;
53299;SDS011;39187;48.476;8.310;2023-02-07T05:29:54;21.23;;;15.07;;
53299;SDS011;39187;48.476;8.310;2023-02-07T05:32:20;24.63;;;13.97;;
53299;SDS011;39187;48.476;8.310;2023-02-07T05:35:04;25.50;;;14.70;;
53299;SDS011;39187;48.476;8.310;2023-02-07T05:37:30;23.10;;;14.77;;
53299;SDS011;39187;48.476;8.310;2023-02-07T05:39:56;23.27;;;13.60;;
53299;SDS011;39187;48.476;8.310;2023-02-07T05:42:21;21.27;;;13.87;;
53299;SDS011;39187;48.476;8.310;2023-02-07T05:44:47;26.30;;;14.80;;
53299;SDS011;39187;48.476;8.310;2023-02-07T05:47:12;24.97;;;15.10;;
53299;SDS011;39187;48.476;8.310;2023-02-07T05:49:38;19.93;;;14.00;;
53299;SDS011;39187;48.476;8.310;2023-02-07T05:52:03;25.60;;;14.80;;
53299;SDS011;39187;48.476;8.310;2023-02-07T05:54:29;26.30;;;15.17;;
53299;SDS011;39187;48.476;8.310;2023-02-07T05:56:55;21.03;;;13.50;;
53299;SDS011;39187;48.476;8.310;2023-02-07T05:59:20;27.30;;;15.80;;
53299;SDS011;39187;48.476;8.310;2023-02-07T06:01:46;19.20;;;13.00;;
53299;SDS011;39187;48.476;8.310;2023-02-07T06:04:11;20.30;;;14.37;;
53299;SDS011;39187;48.476;8.310;2023-02-07T06:06:37;18.47;;;13.47;;
53299;SDS011;39187;48.476;8.310;2023-02-07T06:09:02;19.70;;;12.93;;
53299;SDS011;39187;48.476;8.310;2023-02-07T06:11:29;22.20;;;13.53;;
53299;SDS011;39187;48.476;8.310;2023-02-07T06:13:54;20.10;;;14.20;;
53299;SDS011;39187;48.476;8.310;2023-02-07T06:16:20;17.90;;;13.17;;
53299;SDS011;39187;48.476;8.310;2023-02-07T06:18:45;24.10;;;14.87;;
53299;SDS011;39187;48.476;8.310;2023-02-07T06:21:11;19.80;;;13.97;;
53299;SDS011;39187;48.476;8.310;2023-02-07T06:23:36;23.40;;;13.77;;
53299;SDS011;39187;48.476;8.310;2023-02-07T06:26:01;22.90;;;16.30;;
53299;SDS011;39187;48.476;8.310;2023-02-07T06:28:27;23.00;;;14.60;;
53299;SDS011;39187;48.476;8.310;2023-02-07T06:30:52;23.50;;;13.53;;
53299;SDS011;39187;48.476;8.310;2023-02-07T06:33:18;23.57;;;15.13;;
53299;SDS011;39187;48.476;8.310;2023-02-07T06:35:44;20.50;;;16.27;;
53299;SDS011;39187;48.476;8.310;2023-02-07T06:38:14;19.00;;;13.13;;
53299;SDS011;39187;48.476;8.310;2023-02-07T06:40:41;23.90;;;14.00;;
53299;SDS011;39187;48.476;8.310;2023-02-07T06:43:07;21.87;;;14.33;;
53299;SDS011;39187;48.476;8.310;2023-02-07T06:45:34;20.67;;;15.00;;
53299;SDS011;39187;48.476;8.310;2023-02-07T06:48:00;21.37;;;13.83;;
53299;SDS011;39187;48.476;8.310;2023-02-07T06:50:25;20.33;;;14.13;;
53299;SDS011;39187;48.476;8.310;2023-02-07T06:52:51;21.50;;;15.33;;
53299;SDS011;39187;48.476;8.310;2023-02-07T06:55:16;14.43;;;12.40;;
53299;SDS011;39187;48.476;8.310;2023-02-07T06:57:42;21.97;;;12.77;;
53299;SDS011;39187;48.476;8.310;2023-02-07T07:00:08;20.83;;;15.40;;
53299;SDS011;39187;48.476;8.310;2023-02-07T07:02:33;25.93;;;16.00;;
53299;SDS011;39187;48.476;8.310;2023-02-07T07:04:59;20.00;;;15.07;;
53299;SDS011;39187;48.476;8.310;2023-02-07T07:07:24;25.23;;;15.73;;
53299;SDS011;39187;48.476;8.310;2023-02-07T07:09:50;18.03;;;14.30;;
53299;SDS011;39187;48.476;8.310;2023-02-07T07:12:16;26.17;;;15.47;;
53299;SDS011;39187;48.476;8.310;2023-02-07T07:14:41;26.80;;;14.37;;
53299;SDS011;39187;48.476;8.310;2023-02-07T07:17:06;22.77;;;15.97;;
53299;SDS011;39187;48.476;8.310;2023-02-07T07:19:32;18.10;;;12.80;;
53299;SDS011;39187;48.476;8.310;2023-02-07T07:21:57;14.90;;;12.43;;
53299;SDS011;39187;48.476;8.310;2023-02-07T07:24:23;21.07;;;13.10;;
53299;SDS011;39187;48.476;8.310;2023-02-07T07:26:49;24.33;;;13.33;;
53299;SDS011;39187;48.476;8.310;2023-02-07T07:29:15;19.67;;;13.30;;
53299;SDS011;39187;48.476;8.310;2023-02-07T07:31:41;17.67;;;12.97;;
53299;SDS011;39187;48.476;8.310;2023-02-07T07:34:07;18.00;;;13.57;;
53299;SDS011;39187;48.476;8.310;2023-02-07T07:36:33;17.23;;;12.40;;
53299;SDS011;39187;48.476;8.310;2023-02-07T07:38:58;15.20;;;12.80;;
53299;SDS011;39187;48.476;8.310;2023-02-07T07:41:23;20.33;;;11.77;;
53299;SDS011;39187;48.476;8.310;2023-02-07T07:43:49;17.40;;;13.37;;
53299;SDS011;39187;48.476;8.310;2023-02-07T07:46:14;19.20;;;13.50;;
53299;SDS011;39187;48.476;8.310;2023-02-07T07:48:40;14.47;;;11.67;;
53299;SDS011;39187;48.476;8.310;2023-02-07T07:51:05;16.13;;;12.67;;
53299;SDS011;39187;48.476;8.310;2023-02-07T07:53:31;13.33;;;11.93;;
53299;SDS011;39187;48.476;8.310;2023-02-07T07:55:56;13.03;;;11.80;;
53299;SDS011;39187;48.476;8.310;2023-02-07T07:58:23;15.57;;;12.83;;
53299;SDS011;39187;48.476;8.310;2023-02-07T08:00:50;14.30;;;11.90;;
53299;SDS011;39187;48.476;8.310;2023-02-07T08:03:15;13.30;;;12.00;;
53299;SDS011;39187;48.476;8.310;2023-02-07T08:05:43;18.27;;;12.83;;
53299;SDS011;39187;48.476;8.310;2023-02-07T08:08:09;16.60;;;12.23;;
53299;SDS011;39187;48.476;8.310;2023-02-07T08:10:35;16.40;;;11.60;;
53299;SDS011;39187;48.476;8.310;2023-02-07T08:13:01;12.47;;;10.93;;
53299;SDS011;39187;48.476;8.310;2023-02-07T08:15:27;12.53;;;11.23;;
53299;SDS011;39187;48.476;8.310;2023-02-07T08:17:52;12.40;;;11.30;;
53299;SDS011;39187;48.476;8.310;2023-02-07T08:20:18;14.80;;;12.20;;
53299;SDS011;39187;48.476;8.310;2023-02-07T08:22:44;14.87;;;12.30;;
53299;SDS011;39187;48.476;8.310;2023-02-07T08:25:09;16.27;;;12.13;;
53299;SDS011;39187;48.476;8.310;2023-02-07T08:27:35;14.57;;;11.63;;
53299;SDS011;39187;48.476;8.310;2023-02-07T08:30:03;14.90;;;13.20;;
53299;SDS011;39187;48.476;8.310;2023-02-07T08:32:30;13.47;;;12.17;;
53299;SDS011;39187;48.476;8.310;2023-02-07T08:34:56;13.30;;;12.03;;
53299;SDS011;39187;48.476;8.310;2023-02-07T08:37:21;13.10;;;11.33;;
53299;SDS011;39187;48.476;8.310;2023-02-07T08:39:47;13.57;;;12.37;;
53299;SDS011;39187;48.476;8.310;2023-02-07T08:42:17;15.57;;;11.93;;
53299;SDS011;39187;48.476;8.310;2023-02-07T08:44:44;10.83;;;9.67;;
53299;SDS011;39187;48.476;8.310;2023-02-07T08:47:11;12.47;;;10.47;;
53299;SDS011;39187;48.476;8.310;2023-02-07T08:49:37;11.67;;;10.47;;
53299;SDS011;39187;48.476;8.310;2023-02-07T08:52:02;13.80;;;11.47;;
53299;SDS011;39187;48.476;8.310;2023-02-07T08:54:28;13.23;;;11.83;;
53299;SDS011;39187;48.476;8.310;2023-02-07T08:56:54;12.40;;;11.20;;
53299;SDS011;39187;48.476;8.310;2023-02-07T08:59:19;13.53;;;12.23;;
53299;SDS011;39187;48.476;8.310;2023-02-07T09:01:45;13.33;;;11.90;;
53299;SDS011;39187;48.476;8.310;2023-02-07T09:04:11;12.10;;;10.97;;
53299;SDS011;39187;48.476;8.310;2023-02-07T09:06:36;10.70;;;9.70;;
53299;SDS011;39187;48.476;8.310;2023-02-07T09:09:03;18.83;;;11.53;;
53299;SDS011;39187;48.476;8.310;2023-02-07T09:11:29;10.40;;;9.40;;
53299;SDS011;39187;48.476;8.310;2023-02-07T09:13:54;14.90;;;11.67;;
53299;SDS011;39187;48.476;8.310;2023-02-07T09:16:20;11.63;;;10.43;;
53299;SDS011;39187;48.476;8.310;2023-02-07T09:18:47;12.97;;;11.07;;
53299;SDS011;39187;48.476;8.310;2023-02-07T09:21:13;11.90;;;10.67;;
53299;SDS011;39187;48.476;8.310;2023-02-07T09:23:39;12.50;;;11.30;;
53299;SDS011;39187;48.476;8.310;2023-02-07T09:26:05;12.70;;;11.43;;
53299;SDS011;39187;48.476;8.310;2023-02-07T09:28:32;14.27;;;12.03;;
53299;SDS011;39187;48.476;8.310;2023-02-07T09:30:58;19.40;;;12.70;;
53299;SDS011;39187;48.476;8.310;2023-02-07T09:33:24;13.23;;;11.93;;
53299;SDS011;39187;48.476;8.310;2023-02-07T09:35:50;14.27;;;12.53;;
53299;SDS011;39187;48.476;8.310;2023-02-07T09:38:17;12.40;;;10.80;;
53299;SDS011;39187;48.476;8.310;2023-02-07T09:40:45;15.63;;;11.60;;
53299;SDS011;39187;48.476;8.310;2023-02-07T09:43:13;11.83;;;10.77;;
53299;SDS011;39187;48.476;8.310;2023-02-07T09:46:16;13.73;;;11.70;;
53299;SDS011;39187;48.476;8.310;2023-02-07T09:48:50;12.03;;;10.93;;
53299;SDS011;39187;48.476;8.310;2023-02-07T09:51:24;12.37;;;11.10;;
53299;SDS011;39187;48.476;8.310;2023-02-07T09:53:56;20.40;;;12.07;;
53299;SDS011;39187;48.476;8.310;2023-02-07T09:56:30;12.67;;;11.47;;
53299;SDS011;39187;48.476;8.310;2023-02-07T09:59:41;12.90;;;11.23;;
53299;SDS011;39187;48.476;8.310;2023-02-07T10:02:15;12.30;;;10.67;;
53299;SDS011;39187;48.476;8.310;2023-02-07T10:04:45;11.90;;;10.70;;
53299;SDS011;39187;48.476;8.310;2023-02-07T10:07:14;13.47;;;11.57;;
53299;SDS011;39187;48.476;8.310;2023-02-07T10:09:40;14.97;;;10.80;;
53299;SDS011;39187;48.476;8.310;2023-02-07T10:15:01;12.03;;;10.80;;
53299;SDS011;39187;48.476;8.310;2023-02-07T10:27:52;15.30;;;11.83;;
53299;SDS011;39187;48.476;8.310;2023-02-07T10:30:27;13.10;;;11.80;;
53299;SDS011;39187;48.476;8.310;2023-02-07T10:33:03;11.80;;;10.27;;
53299;SDS011;39187;48.476;8.310;2023-02-07T10:35:37;12.40;;;11.40;;
53299;SDS011;39187;48.476;8.310;2023-02-07T10:38:04;13.40;;;12.13;;
53299;SDS011;39187;48.476;8.310;2023-02-07T10:40:48;13.40;;;12.03;;
53299;SDS011;39187;48.476;8.310;2023-02-07T10:45:45;15.40;;;11.60;;
53299;SDS011;39187;48.476;8.310;2023-02-07T10:48:12;12.03;;;10.90;;
53299;SDS011;39187;48.476;8.310;2023-02-07T10:50:39;15.13;;;12.40;;
53299;SDS011;39187;48.476;8.310;2023-02-07T10:53:05;13.40;;;12.20;;
53299;SDS011;39187;48.476;8.310;2023-02-07T10:55:38;13.27;;;12.00;;
53299;SDS011;39187;48.476;8.310;2023-02-07T10:58:12;12.60;;;11.30;;
53299;SDS011;39187;48.476;8.310;2023-02-07T11:00:40;12.77;;;11.57;;
53299;SDS011;39187;48.476;8.310;2023-02-07T11:03:06;15.03;;;12.43;;
53299;SDS011;39187;48.476;8.310;2023-02-07T11:05:50;12.03;;;10.90;;
53299;SDS011;39187;48.476;8.310;2023-02-07T11:08:17;13.53;;;10.90;;
53299;SDS011;39187;48.476;8.310;2023-02-07T11:10:48;13.63;;;11.17;;
53299;SDS011;39187;48.476;8.310;2023-02-07T11:13:20;11.80;;;10.70;;
53299;SDS011;39187;48.476;8.310;2023-02-07T11:15:51;15.03;;;12.60;;
53299;SDS011;39187;48.476;8.310;2023-02-07T11:20:51;14.00;;;11.30;;
53299;SDS011;39187;48.476;8.310;2023-02-07T11:23:20;11.67;;;10.10;;
53299;SDS011;39187;48.476;8.310;2023-02-07T11:25:47;11.80;;;10.53;;
53299;SDS011;39187;48.476;8.310;2023-02-07T11:28:26;12.27;;;11.10;;
53299;SDS011;39187;48.476;8.310;2023-02-07T11:31:00;16.17;;;12.50;;
53299;SDS011;39187;48.476;8.310;2023-02-07T11:33:39;13.57;;;11.67;;
53299;SDS011;39187;48.476;8.310;2023-02-07T11:38:55;13.57;;;12.30;;
53299;SDS011;39187;48.476;8.310;2023-02-07T11:41:32;14.87;;;11.70;;
53299;SDS011;39187;48.476;8.310;2023-02-07T11:44:00;14.40;;;11.87;;
53299;SDS011;39187;48.476;8.310;2023-02-07T11:46:40;12.60;;;11.40;;
53299;SDS011;39187;48.476;8.310;2023-02-07T11:49:17;14.00;;;12.30;;
53299;SDS011;39187;48.476;8.310;2023-02-07T11:51:53;15.57;;;12.90;;
53299;SDS011;39187;48.476;8.310;2023-02-07T11:54:22;20.67;;;11.70;;
53299;SDS011;39187;48.476;8.310;2023-02-07T11:56:49;12.73;;;11.53;;
53299;SDS011;39187;48.476;8.310;2023-02-07T11:59:23;17.30;;;12.50;;
53299;SDS011;39187;48.476;8.310;2023-02-07T12:01:59;12.27;;;11.10;;
53299;SDS011;39187;48.476;8.310;2023-02-07T12:04:34;17.27;;;11.67;;
53299;SDS011;39187;48.476;8.310;2023-02-07T12:07:03;12.50;;;11.07;;
53299;SDS011;39187;48.476;8.310;2023-02-07T12:09:36;14.30;;;12.50;;
53299;SDS011;39187;48.476;8.310;2023-02-07T12:12:04;12.47;;;11.37;;
53299;SDS011;39187;48.476;8.310;2023-02-07T12:14:38;15.53;;;12.57;;
53299;SDS011;39187;48.476;8.310;2023-02-07T12:17:20;12.30;;;11.10;;
53299;SDS011;39187;48.476;8.310;2023-02-07T12:19:57;13.50;;;12.10;;
53299;SDS011;39187;48.476;8.310;2023-02-07T12:22:34;12.57;;;11.40;;
53299;SDS011;39187;48.476;8.310;2023-02-07T12:25:21;13.87;;;11.90;;
53299;SDS011;39187;48.476;8.310;2023-02-07T12:27:50;21.10;;;12.53;;
53299;SDS011;39187;48.476;8.310;2023-02-07T12:30:21;14.23;;;12.80;;
53299;SDS011;39187;48.476;8.310;2023-02-07T12:35:40;14.50;;;11.03;;
53299;SDS011;39187;48.476;8.310;2023-02-07T12:41:33;14.87;;;11.57;;
53299;SDS011;39187;48.476;8.310;2023-02-07T12:46:56;11.33;;;10.33;;
53299;SDS011;39187;48.476;8.310;2023-02-07T12:49:36;10.63;;;9.53;;
53299;SDS011;39187;48.476;8.310;2023-02-07T12:58:07;12.27;;;10.63;;
53299;SDS011;39187;48.476;8.310;2023-02-07T13:03:58;11.87;;;10.67;;
53299;SDS011;39187;48.476;8.310;2023-02-07T13:06:51;11.40;;;10.20;;
53299;SDS011;39187;48.476;8.310;2023-02-07T13:09:41;11.93;;;10.47;;
53299;SDS011;39187;48.476;8.310;2023-02-07T13:12:27;14.87;;;10.77;;
53299;SDS011;39187;48.476;8.310;2023-02-07T13:17:50;16.67;;;11.83;;
53299;SDS011;39187;48.476;8.310;2023-02-07T13:23:05;10.60;;;9.67;;
53299;SDS011;39187;48.476;8.310;2023-02-07T13:25:44;12.17;;;10.20;;
53299;SDS011;39187;48.476;8.310;2023-02-07T13:31:00;11.93;;;10.63;;
53299;SDS011;39187;48.476;8.310;2023-02-07T13:33:29;11.03;;;10.00;;
53299;SDS011;39187;48.476;8.310;2023-02-07T13:35:57;12.20;;;11.03;;
53299;SDS011;39187;48.476;8.310;2023-02-07T13:38:49;15.00;;;10.30;;
53299;SDS011;39187;48.476;8.310;2023-02-07T13:44:18;17.03;;;9.10;;
53299;SDS011;39187;48.476;8.310;2023-02-07T13:47:06;9.87;;;8.87;;
53299;SDS011;39187;48.476;8.310;2023-02-07T13:50:18;9.60;;;8.30;;
53299;SDS011;39187;48.476;8.310;2023-02-07T13:56:03;10.97;;;9.80;;
53299;SDS011;39187;48.476;8.310;2023-02-07T13:58:54;9.77;;;8.70;;
53299;SDS011;39187;48.476;8.310;2023-02-07T14:01:44;10.27;;;9.37;;
53299;SDS011;39187;48.476;8.310;2023-02-07T14:04:23;11.27;;;10.00;;
53299;SDS011;39187;48.476;8.310;2023-02-07T14:09:21;10.50;;;9.50;;
53299;SDS011;39187;48.476;8.310;2023-02-07T14:12:00;9.53;;;8.63;;
53299;SDS011;39187;48.476;8.310;2023-02-07T14:14:32;9.97;;;9.10;;
53299;SDS011;39187;48.476;8.310;2023-02-07T14:17:01;9.87;;;8.93;;
53299;SDS011;39187;48.476;8.310;2023-02-07T14:19:53;10.40;;;9.30;;
53299;SDS011;39187;48.476;8.310;2023-02-07T14:27:31;11.40;;;8.30;;
53299;SDS011;39187;48.476;8.310;2023-02-07T14:37:53;10.03;;;9.00;;
53299;SDS011;39187;48.476;8.310;2023-02-07T14:43:17;11.10;;;9.23;;
53299;SDS011;39187;48.476;8.310;2023-02-07T14:54:05;9.23;;;8.23;;
53299;SDS011;39187;48.476;8.310;2023-02-07T14:56:48;9.33;;;8.53;;
53299;SDS011;39187;48.476;8.310;2023-02-07T15:00:01;9.03;;;8.23;;
53299;SDS011;39187;48.476;8.310;2023-02-07T15:02:37;8.97;;;7.97;;
53299;SDS011;39187;48.476;8.310;2023-02-07T15:08:35;9.83;;;7.73;;
53299;SDS011;39187;48.476;8.310;2023-02-07T15:11:03;8.50;;;7.73;;
53299;SDS011;39187;48.476;8.310;2023-02-07T15:18:37;9.33;;;8.50;;
53299;SDS011;39187;48.476;8.310;2023-02-07T15:21:05;8.17;;;7.57;;
53299;SDS011;39187;48.476;8.310;2023-02-07T15:23:39;13.20;;;9.27;;
53299;SDS011;39187;48.476;8.310;2023-02-07T15:26:05;9.53;;;8.63;;
53299;SDS011;39187;48.476;8.310;2023-02-07T15:28:32;11.40;;;8.60;;
53299;SDS011;39187;48.476;8.310;2023-02-07T15:33:39;9.60;;;8.37;;
53299;SDS011;39187;48.476;8.310;2023-02-07T15:38:57;9.53;;;8.73;;
53299;SDS011;39187;48.476;8.310;2023-02-07T15:41:25;9.47;;;8.60;;
53299;SDS011;39187;48.476;8.310;2023-02-07T15:43:52;9.20;;;8.30;;
53299;SDS011;39187;48.476;8.310;2023-02-07T15:49:08;8.37;;;7.70;;
53299;SDS011;39187;48.476;8.310;2023-02-07T15:51:35;8.90;;;7.90;;
53299;SDS011;39187;48.476;8.310;2023-02-07T15:54:05;8.90;;;8.13;;
53299;SDS011;39187;48.476;8.310;2023-02-07T15:56:31;8.63;;;7.80;;
53299;SDS011;39187;48.476;8.310;2023-02-07T15:58:58;10.23;;;7.50;;
53299;SDS011;39187;48.476;8.310;2023-02-07T16:01:27;7.37;;;6.70;;
53299;SDS011;39187;48.476;8.310;2023-02-07T16:03:55;7.93;;;7.23;;
53299;SDS011;39187;48.476;8.310;2023-02-07T16:06:22;8.73;;;7.90;;
53299;SDS011;39187;48.476;8.310;2023-02-07T16:08:51;7.47;;;6.97;;
53299;SDS011;39187;48.476;8.310;2023-02-07T16:16:32;10.87;;;8.50;;
53299;SDS011;39187;48.476;8.310;2023-02-07T16:19:04;16.03;;;7.20;;
53299;SDS011;39187;48.476;8.310;2023-02-07T16:21:30;9.27;;;8.40;;
53299;SDS011;39187;48.476;8.310;2023-02-07T16:23:59;10.70;;;9.60;;
53299;SDS011;39187;48.476;8.310;2023-02-07T16:26:30;12.10;;;9.67;;
53299;SDS011;39187;48.476;8.310;2023-02-07T16:28:56;10.20;;;8.83;;
53299;SDS011;39187;48.476;8.310;2023-02-07T16:31:22;10.93;;;9.77;;
53299;SDS011;39187;48.476;8.310;2023-02-07T16:33:47;11.87;;;9.47;;
53299;SDS011;39187;48.476;8.310;2023-02-07T16:36:14;17.20;;;9.60;;
53299;SDS011;39187;48.476;8.310;2023-02-07T16:38:41;12.10;;;9.80;;
53299;SDS011;39187;48.476;8.310;2023-02-07T16:41:10;12.43;;;11.20;;
53299;SDS011;39187;48.476;8.310;2023-02-07T16:43:42;11.47;;;9.07;;
53299;SDS011;39187;48.476;8.310;2023-02-07T16:46:08;12.93;;;9.33;;
53299;SDS011;39187;48.476;8.310;2023-02-07T16:48:33;13.63;;;9.40;;
53299;SDS011;39187;48.476;8.310;2023-02-07T16:50:59;16.03;;;10.20;;
53299;SDS011;39187;48.476;8.310;2023-02-07T16:53:25;11.50;;;10.30;;
53299;SDS011;39187;48.476;8.310;2023-02-07T16:55:52;9.77;;;8.43;;
53299;SDS011;39187;48.476;8.310;2023-02-07T16:58:26;14.77;;;8.83;;
53299;SDS011;39187;48.476;8.310;2023-02-07T17:00:54;10.17;;;9.23;;
53299;SDS011;39187;48.476;8.310;2023-02-07T17:03:20;10.00;;;8.77;;
53299;SDS011;39187;48.476;8.310;2023-02-07T17:05:46;9.53;;;8.73;;
53299;SDS011;39187;48.476;8.310;2023-02-07T17:08:15;15.63;;;9.20;;
53299;SDS011;39187;48.476;8.310;2023-02-07T17:10:47;14.07;;;7.17;;
53299;SDS011;39187;48.476;8.310;2023-02-07T17:13:16;9.77;;;8.60;;